createdAt,value
2019-04-07T00:00:01.974Z,11.27
2019-04-07T00:00:59.725Z,11.25
2019-04-07T00:01:59.480Z,11.19
2019-04-07T00:02:59.322Z,11.20
2019-04-07T00:04:01.971Z,11.08
2019-04-07T00:05:10.228Z,11.13
2019-04-07T00:05:59.791Z,11.15
2019-04-07T00:06:59.969Z,11.20
2019-04-07T00:07:59.379Z,11.15
2019-04-07T00:09:00.512Z,11.23
2019-04-07T00:09:59.228Z,11.16
2019-04-07T00:10:59.214Z,11.20
2019-04-07T00:11:59.204Z,11.18
2019-04-07T00:12:59.545Z,11.23
2019-04-07T00:13:59.220Z,11.18
2019-04-07T00:14:59.174Z,11.19
2019-04-07T00:15:59.166Z,11.16
2019-04-07T00:16:59.567Z,11.12
2019-04-07T00:17:59.252Z,11.10
2019-04-07T00:18:59.310Z,11.18
2019-04-07T00:19:59.123Z,11.16
2019-04-07T00:20:59.109Z,11.20
2019-04-07T00:21:59.333Z,11.18
2019-04-07T00:22:59.088Z,11.12
2019-04-07T00:24:01.513Z,11.15
2019-04-07T00:24:59.562Z,11.12
2019-04-07T00:25:59.051Z,11.05
2019-04-07T00:26:59.062Z,11.18
2019-04-07T00:27:59.672Z,11.05
2019-04-07T00:28:59.022Z,11.04
2019-04-07T00:29:59.905Z,11.01
2019-04-07T00:30:59.525Z,10.94
2019-04-07T00:31:59.001Z,10.84
2019-04-07T00:32:59.466Z,10.83
2019-04-07T00:33:59.331Z,10.82
2019-04-07T00:34:58.961Z,10.79
2019-04-07T00:35:59.260Z,10.80
2019-04-07T00:36:58.957Z,10.76
2019-04-07T00:37:59.465Z,10.75
2019-04-07T00:38:59.463Z,10.82
2019-04-07T00:39:58.990Z,10.72
2019-04-07T00:41:01.466Z,10.79
2019-04-07T00:41:59.226Z,10.76
2019-04-07T00:42:58.870Z,10.79
2019-04-07T00:43:59.345Z,10.83
2019-04-07T00:44:58.844Z,10.76
2019-04-07T00:45:58.856Z,10.75
2019-04-07T00:46:58.846Z,10.77
2019-04-07T00:47:59.352Z,10.72
2019-04-07T00:48:59.431Z,10.67
2019-04-07T00:49:58.811Z,10.65
2019-04-07T00:50:59.249Z,10.69
2019-04-07T00:51:58.805Z,10.77
2019-04-07T00:52:59.062Z,10.65
2019-04-07T00:53:58.745Z,10.69
2019-04-07T00:54:58.859Z,10.68
2019-04-07T00:55:59.502Z,10.71
2019-04-07T00:56:59.373Z,10.75
2019-04-07T00:58:01.463Z,10.65
2019-04-07T00:58:58.859Z,10.65
2019-04-07T00:59:58.679Z,10.51
2019-04-07T01:00:58.942Z,10.51
2019-04-07T01:01:58.661Z,10.49
2019-04-07T01:02:58.670Z,10.39
2019-04-07T01:03:58.666Z,10.34
2019-04-07T01:04:58.629Z,10.34
2019-04-07T01:05:58.779Z,10.41
2019-04-07T01:06:59.143Z,10.43
2019-04-07T01:07:59.189Z,10.34
2019-04-07T01:08:59.157Z,10.45
2019-04-07T01:09:58.578Z,10.48
2019-04-07T01:10:58.622Z,10.46
2019-04-07T01:11:58.635Z,10.42
2019-04-07T01:12:58.960Z,10.34
2019-04-07T01:13:58.557Z,10.45
2019-04-07T01:14:58.753Z,10.41
2019-04-07T01:15:58.743Z,10.41
2019-04-07T01:16:58.500Z,10.39
2019-04-07T01:17:58.803Z,10.41
2019-04-07T01:18:59.178Z,10.53
2019-04-07T01:19:58.649Z,10.48
2019-04-07T01:20:58.455Z,10.46
2019-04-07T01:21:58.990Z,10.51
2019-04-07T01:22:58.429Z,10.48
2019-04-07T01:23:59.046Z,10.41
2019-04-07T01:24:58.537Z,10.39
2019-04-07T01:25:58.557Z,10.33
2019-04-07T01:26:58.913Z,10.43
2019-04-07T01:27:58.625Z,10.45
2019-04-07T01:28:59.249Z,10.49
2019-04-07T01:29:58.353Z,10.34
2019-04-07T01:30:59.048Z,10.48
2019-04-07T01:31:58.444Z,10.43
2019-04-07T01:32:58.320Z,10.48
2019-04-07T01:33:58.734Z,10.51
2019-04-07T01:34:58.297Z,10.45
2019-04-07T01:35:58.297Z,10.31
2019-04-07T01:36:58.428Z,10.31
2019-04-07T01:37:58.370Z,10.24
2019-04-07T01:38:58.707Z,10.17
2019-04-07T01:39:58.243Z,10.15
2019-04-07T01:40:58.257Z,10.07
2019-04-07T01:41:58.415Z,10.18
2019-04-07T01:42:58.858Z,10.12
2019-04-07T01:43:58.197Z,10.15
2019-04-07T01:44:58.413Z,10.21
2019-04-07T01:45:58.700Z,10.17
2019-04-07T01:47:58.423Z,10.20
2019-04-07T01:48:58.608Z,10.21
2019-04-07T01:49:58.852Z,10.20
2019-04-07T01:50:58.208Z,10.25
2019-04-07T01:52:00.953Z,10.23
2019-04-07T01:52:59.218Z,10.21
2019-04-07T01:53:58.092Z,10.25
2019-04-07T01:54:58.081Z,10.20
2019-04-07T01:55:58.678Z,10.23
2019-04-07T01:56:58.167Z,10.23
2019-04-07T01:57:58.162Z,10.25
2019-04-07T01:58:58.326Z,10.28
2019-04-07T01:59:58.200Z,10.20
2019-04-07T02:00:58.737Z,10.24
2019-04-07T02:01:58.095Z,10.17
2019-04-07T02:02:57.993Z,10.06
2019-04-07T02:04:01.688Z,10.13
2019-04-07T02:04:58.137Z,10.06
2019-04-07T02:06:01.724Z,10.13
2019-04-07T02:06:57.980Z,10.12
2019-04-07T02:07:57.935Z,10.06
2019-04-07T02:08:58.307Z,10.10
2019-04-07T02:10:00.441Z,10.10
2019-04-07T02:11:00.445Z,10.12
2019-04-07T02:11:58.370Z,10.09
2019-04-07T02:12:57.939Z,10.09
2019-04-07T02:13:58.394Z,10.09
2019-04-07T02:14:57.863Z,10.10
2019-04-07T02:15:57.879Z,10.09
2019-04-07T02:16:57.890Z,10.06
2019-04-07T02:17:59.251Z,9.95
2019-04-07T02:18:58.653Z,9.92
2019-04-07T02:19:57.811Z,9.92
2019-04-07T02:20:57.792Z,9.94
2019-04-07T02:21:58.272Z,9.92
2019-04-07T02:22:57.769Z,9.95
2019-04-07T02:23:57.760Z,9.85
2019-04-07T02:24:57.751Z,9.82
2019-04-07T02:25:58.181Z,9.81
2019-04-07T02:26:57.773Z,9.90
2019-04-07T02:27:58.437Z,9.80
2019-04-07T02:28:58.367Z,9.81
2019-04-07T02:29:57.914Z,9.81
2019-04-07T02:30:58.781Z,9.81
2019-04-07T02:31:58.524Z,9.77
2019-04-07T02:32:58.283Z,9.76
2019-04-07T02:33:57.660Z,9.82
2019-04-07T02:35:01.379Z,9.77
2019-04-07T02:36:13.498Z,9.70
2019-04-07T02:36:58.228Z,9.67
2019-04-07T02:37:57.607Z,9.67
2019-04-07T02:38:58.275Z,9.72
2019-04-07T02:39:57.592Z,9.73
2019-04-07T02:40:58.432Z,9.74
2019-04-07T02:41:57.597Z,9.72
2019-04-07T02:42:57.764Z,9.72
2019-04-07T02:43:57.629Z,9.72
2019-04-07T02:44:57.552Z,9.73
2019-04-07T02:45:57.910Z,9.74
2019-04-07T02:46:57.506Z,9.81
2019-04-07T02:47:57.821Z,9.69
2019-04-07T02:48:57.787Z,9.63
2019-04-07T02:49:57.482Z,9.64
2019-04-07T02:50:57.482Z,9.69
2019-04-07T02:51:57.488Z,9.55
2019-04-07T02:52:57.444Z,9.63
2019-04-07T02:53:58.428Z,9.62
2019-04-07T02:54:57.432Z,9.58
2019-04-07T02:55:57.415Z,9.56
2019-04-07T02:56:57.417Z,9.59
2019-04-07T02:57:58.229Z,9.56
2019-04-07T02:58:58.138Z,9.63
2019-04-07T02:59:57.833Z,9.62
2019-04-07T03:00:57.745Z,9.63
2019-04-07T03:01:57.592Z,9.59
2019-04-07T03:02:58.084Z,9.59
2019-04-07T03:04:56.926Z,9.54
2019-04-07T03:05:57.303Z,9.55
2019-04-07T03:06:57.289Z,9.59
2019-04-07T03:07:57.464Z,9.55
2019-04-07T03:08:57.274Z,9.52
2019-04-07T03:09:57.289Z,9.42
2019-04-07T03:10:57.247Z,9.34
2019-04-07T03:11:59.922Z,9.30
2019-04-07T03:12:57.518Z,9.26
2019-04-07T03:13:57.575Z,9.30
2019-04-07T03:14:57.203Z,9.22
2019-04-07T03:15:57.837Z,9.26
2019-04-07T03:16:57.833Z,9.33
2019-04-07T03:17:57.384Z,9.33
2019-04-07T03:18:57.983Z,9.39
2019-04-07T03:19:57.168Z,9.36
2019-04-07T03:20:57.169Z,9.39
2019-04-07T03:21:57.772Z,9.36
2019-04-07T03:22:57.111Z,9.34
2019-04-07T03:23:57.120Z,9.34
2019-04-07T03:24:58.056Z,9.33
2019-04-07T03:25:58.062Z,9.26
2019-04-07T03:26:57.099Z,9.21
2019-04-07T03:27:57.339Z,9.09
2019-04-07T03:28:57.994Z,9.16
2019-04-07T03:29:57.033Z,9.13
2019-04-07T03:30:59.066Z,9.05
2019-04-07T03:31:59.749Z,9.03
2019-04-07T03:32:57.926Z,9.13
2019-04-07T03:33:58.726Z,9.13
2019-04-07T03:34:58.138Z,9.05
2019-04-07T03:36:01.109Z,8.97
2019-04-07T03:37:25.943Z,8.82
2019-04-07T03:37:57.228Z,8.81
2019-04-07T03:38:57.698Z,8.72
2019-04-07T03:39:57.047Z,8.66
2019-04-07T03:40:57.007Z,8.61
2019-04-07T03:41:56.906Z,8.57
2019-04-07T03:42:59.424Z,8.45
2019-04-07T03:43:57.109Z,8.54
2019-04-07T03:44:56.880Z,8.44
2019-04-07T03:45:57.237Z,8.46
2019-04-07T03:46:57.214Z,8.38
2019-04-07T03:47:56.851Z,8.35
2019-04-07T03:48:57.831Z,8.39
2019-04-07T03:49:57.067Z,8.35
2019-04-07T03:50:56.995Z,8.44
2019-04-07T03:51:57.838Z,8.50
2019-04-07T03:52:59.422Z,8.57
2019-04-07T03:53:56.793Z,8.60
2019-04-07T03:55:55.757Z,8.68
2019-04-07T03:56:56.739Z,8.64
2019-04-07T03:57:56.999Z,8.68
2019-04-07T03:58:56.722Z,8.50
2019-04-07T03:59:57.762Z,8.35
2019-04-07T04:00:56.704Z,8.28
2019-04-07T04:01:57.478Z,8.20
2019-04-07T04:03:00.331Z,8.17
2019-04-07T04:03:59.418Z,8.14
2019-04-07T04:04:57.569Z,8.05
2019-04-07T04:05:57.243Z,8.09
2019-04-07T04:06:56.904Z,8.13
2019-04-07T04:07:56.797Z,8.13
2019-04-07T04:08:56.617Z,8.11
2019-04-07T04:09:56.601Z,7.98
2019-04-07T04:10:56.777Z,8.03
2019-04-07T04:11:56.602Z,7.95
2019-04-07T04:12:56.596Z,7.93
2019-04-07T04:13:56.591Z,7.98
2019-04-07T04:14:56.886Z,7.87
2019-04-07T04:15:56.709Z,7.93
2019-04-07T04:16:56.931Z,8.01
2019-04-07T04:17:57.357Z,7.88
2019-04-07T04:18:56.806Z,7.88
2019-04-07T04:19:57.264Z,7.84
2019-04-07T04:20:57.226Z,7.88
2019-04-07T04:21:56.701Z,7.77
2019-04-07T04:22:57.135Z,7.74
2019-04-07T04:23:57.625Z,7.81
2019-04-07T04:24:57.302Z,7.77
2019-04-07T04:25:56.422Z,7.70
2019-04-07T04:26:57.087Z,7.83
2019-04-07T04:27:59.276Z,7.91
2019-04-07T04:28:56.661Z,7.83
2019-04-07T04:29:56.781Z,7.88
2019-04-07T04:30:56.709Z,7.88
2019-04-07T04:31:57.164Z,7.78
2019-04-07T04:32:56.356Z,7.87
2019-04-07T04:33:56.332Z,7.91
2019-04-07T04:34:56.371Z,7.87
2019-04-07T04:35:56.346Z,8.06
2019-04-07T04:36:56.909Z,8.03
2019-04-07T04:37:56.959Z,7.98
2019-04-07T04:38:56.275Z,7.91
2019-04-07T04:39:56.268Z,7.88
2019-04-07T04:40:56.925Z,7.87
2019-04-07T04:41:56.287Z,7.83
2019-04-07T04:42:56.929Z,7.96
2019-04-07T04:44:55.216Z,7.87
2019-04-07T04:45:56.786Z,7.85
2019-04-07T04:46:56.333Z,7.85
2019-04-07T04:47:56.273Z,7.80
2019-04-07T04:48:56.694Z,7.77
2019-04-07T04:49:56.158Z,7.85
2019-04-07T04:50:56.160Z,7.87
2019-04-07T04:51:57.105Z,7.85
2019-04-07T04:52:56.473Z,7.87
2019-04-07T04:53:56.373Z,7.90
2019-04-07T04:54:56.895Z,7.87
2019-04-07T04:55:57.641Z,8.01
2019-04-07T04:56:56.951Z,8.01
2019-04-07T04:57:56.604Z,7.93
2019-04-07T04:58:56.626Z,8.03
2019-04-07T04:59:56.066Z,8.01
2019-04-07T05:00:56.491Z,8.05
2019-04-07T05:01:56.469Z,8.13
2019-04-07T05:02:56.100Z,8.08
2019-04-07T05:03:56.003Z,8.02
2019-04-07T05:04:56.151Z,8.09
2019-04-07T05:05:56.262Z,8.13
2019-04-07T05:06:55.984Z,8.11
2019-04-07T05:08:00.653Z,8.09
2019-04-07T05:08:58.905Z,8.13
2019-04-07T05:09:56.798Z,8.14
2019-04-07T05:10:56.542Z,8.11
2019-04-07T05:11:56.498Z,8.09
2019-04-07T05:12:56.125Z,8.06
2019-04-07T05:13:55.918Z,7.98
2019-04-07T05:14:57.156Z,7.93
2019-04-07T05:15:56.057Z,7.81
2019-04-07T05:16:56.056Z,7.87
2019-04-07T05:17:56.064Z,7.84
2019-04-07T05:18:55.845Z,7.77
2019-04-07T05:19:58.388Z,7.84
2019-04-07T05:20:56.361Z,7.74
2019-04-07T05:21:55.909Z,7.59
2019-04-07T05:22:55.958Z,7.67
2019-04-07T05:23:56.107Z,7.55
2019-04-07T05:24:55.772Z,7.69
2019-04-07T05:25:56.434Z,7.66
2019-04-07T05:26:58.558Z,7.59
2019-04-07T05:27:55.874Z,7.74
2019-04-07T05:28:55.733Z,7.61
2019-04-07T05:29:55.716Z,7.72
2019-04-07T05:30:55.762Z,7.70
2019-04-07T05:31:55.781Z,7.67
2019-04-07T05:32:55.687Z,7.62
2019-04-07T05:33:56.520Z,7.77
2019-04-07T05:34:55.675Z,7.77
2019-04-07T05:35:55.782Z,7.77
2019-04-07T05:36:56.092Z,7.72
2019-04-07T05:38:02.851Z,7.69
2019-04-07T05:38:56.246Z,7.62
2019-04-07T05:39:55.774Z,7.64
2019-04-07T05:40:55.606Z,7.59
2019-04-07T05:41:55.587Z,7.66
2019-04-07T05:42:55.593Z,7.66
2019-04-07T05:43:55.775Z,7.64
2019-04-07T05:44:56.047Z,7.64
2019-04-07T05:45:59.215Z,7.62
2019-04-07T05:46:56.051Z,7.66
2019-04-07T05:47:55.546Z,7.69
2019-04-07T05:48:55.521Z,7.70
2019-04-07T05:49:58.760Z,7.75
2019-04-07T05:50:57.931Z,7.81
2019-04-07T05:51:55.603Z,7.81
2019-04-07T05:52:55.512Z,7.85
2019-04-07T05:53:55.484Z,7.83
2019-04-07T05:54:56.178Z,7.93
2019-04-07T05:55:56.202Z,7.85
2019-04-07T05:56:58.743Z,7.96
2019-04-07T05:57:55.432Z,7.93
2019-04-07T05:58:55.926Z,8.01
2019-04-07T05:59:55.980Z,8.06
2019-04-07T06:00:55.386Z,8.06
2019-04-07T06:01:59.513Z,8.03
2019-04-07T06:02:55.984Z,8.13
2019-04-07T06:03:55.452Z,8.14
2019-04-07T06:04:55.358Z,8.17
2019-04-07T06:05:55.970Z,8.14
2019-04-07T06:06:56.268Z,8.14
2019-04-07T06:07:55.843Z,8.14
2019-04-07T06:08:55.285Z,8.20
2019-04-07T06:09:55.976Z,8.23
2019-04-07T06:11:00.307Z,8.27
2019-04-07T06:11:55.418Z,8.31
2019-04-07T06:12:55.429Z,8.35
2019-04-07T06:13:55.387Z,8.36
2019-04-07T06:14:55.225Z,8.36
2019-04-07T06:15:55.208Z,8.41
2019-04-07T06:16:55.801Z,8.32
2019-04-07T06:17:58.817Z,8.46
2019-04-07T06:18:55.521Z,8.53
2019-04-07T06:19:57.873Z,8.52
2019-04-07T06:20:55.151Z,8.57
2019-04-07T06:21:55.212Z,8.69
2019-04-07T06:22:55.138Z,8.71
2019-04-07T06:23:58.563Z,8.68
2019-04-07T06:24:55.111Z,8.68
2019-04-07T06:25:57.323Z,8.69
2019-04-07T06:26:55.103Z,8.69
2019-04-07T06:27:55.077Z,8.82
2019-04-07T06:28:58.426Z,8.79
2019-04-07T06:29:59.585Z,8.74
2019-04-07T06:30:55.046Z,8.78
2019-04-07T06:31:56.254Z,8.74
2019-04-07T06:32:55.875Z,8.79
2019-04-07T06:33:55.215Z,8.77
2019-04-07T06:34:55.167Z,8.79
2019-04-07T06:35:55.951Z,8.75
2019-04-07T06:36:55.741Z,8.87
2019-04-07T06:37:57.749Z,8.81
2019-04-07T06:38:54.964Z,8.86
2019-04-07T06:39:54.945Z,8.95
2019-04-07T06:40:57.751Z,9.03
2019-04-07T06:41:55.059Z,9.05
2019-04-07T06:42:55.660Z,9.03
2019-04-07T06:44:07.682Z,9.15
2019-04-07T06:44:55.403Z,9.18
2019-04-07T06:45:55.049Z,9.16
2019-04-07T06:46:58.522Z,9.02
2019-04-07T06:47:55.230Z,8.86
2019-04-07T06:48:55.115Z,8.79
2019-04-07T06:49:54.859Z,8.79
2019-04-07T06:50:59.370Z,8.77
2019-04-07T06:51:55.468Z,8.86
2019-04-07T06:52:54.805Z,8.92
2019-04-07T06:53:55.647Z,9.11
2019-04-07T06:55:54.000Z,9.26
2019-04-07T06:56:55.370Z,9.30
2019-04-07T06:57:54.749Z,9.44
2019-04-07T06:58:54.816Z,9.37
2019-04-07T06:59:54.731Z,9.42
2019-04-07T07:00:55.907Z,9.48
2019-04-07T07:01:58.719Z,9.45
2019-04-07T07:02:55.243Z,9.54
2019-04-07T07:03:54.679Z,9.56
2019-04-07T07:04:55.160Z,9.72
2019-04-07T07:05:54.671Z,9.70
2019-04-07T07:06:54.668Z,9.70
2019-04-07T07:07:54.829Z,9.80
2019-04-07T07:08:57.095Z,9.80
2019-04-07T07:09:58.064Z,9.92
2019-04-07T07:10:55.222Z,9.90
2019-04-07T07:11:55.080Z,9.97
2019-04-07T07:13:00.076Z,10.07
2019-04-07T07:13:55.357Z,10.09
2019-04-07T07:14:54.969Z,10.10
2019-04-07T07:15:54.571Z,10.12
2019-04-07T07:16:55.273Z,10.10
2019-04-07T07:17:57.162Z,10.12
2019-04-07T07:18:55.773Z,10.06
2019-04-07T07:19:56.650Z,10.05
2019-04-07T07:20:54.854Z,10.00
2019-04-07T07:21:54.515Z,10.07
2019-04-07T07:22:54.994Z,10.02
2019-04-07T07:23:54.471Z,10.06
2019-04-07T07:24:57.896Z,10.10
2019-04-07T07:25:54.439Z,10.28
2019-04-07T07:26:57.056Z,10.28
2019-04-07T07:27:54.450Z,10.31
2019-04-07T07:28:54.409Z,10.39
2019-04-07T07:29:55.403Z,10.53
2019-04-07T07:30:54.688Z,10.45
2019-04-07T07:31:59.755Z,10.49
2019-04-07T07:32:54.399Z,10.64
2019-04-07T07:33:54.969Z,10.72
2019-04-07T07:34:55.203Z,10.79
2019-04-07T07:35:54.329Z,10.77
2019-04-07T07:36:56.861Z,10.84
2019-04-07T07:37:58.142Z,10.92
2019-04-07T07:39:00.049Z,11.01
2019-04-07T07:39:54.348Z,11.01
2019-04-07T07:40:54.283Z,11.12
2019-04-07T07:41:55.042Z,11.15
2019-04-07T07:42:56.680Z,11.22
2019-04-07T07:43:55.739Z,11.26
2019-04-07T07:44:54.271Z,11.25
2019-04-07T07:45:54.218Z,11.33
2019-04-07T07:46:55.350Z,11.43
2019-04-07T07:47:55.005Z,11.44
2019-04-07T07:48:58.794Z,11.44
2019-04-07T07:49:54.179Z,11.56
2019-04-07T07:50:54.671Z,11.52
2019-04-07T07:51:54.265Z,11.63
2019-04-07T07:52:54.786Z,11.74
2019-04-07T07:53:56.593Z,11.77
2019-04-07T07:54:55.107Z,11.78
2019-04-07T07:55:54.133Z,11.95
2019-04-07T07:56:54.100Z,11.91
2019-04-07T07:57:56.744Z,11.93
2019-04-07T07:58:54.097Z,11.85
2019-04-07T07:59:54.069Z,12.05
2019-04-07T08:00:54.437Z,12.12
2019-04-07T08:01:54.563Z,12.10
2019-04-07T08:02:54.681Z,12.12
2019-04-07T08:03:55.705Z,12.20
2019-04-07T08:04:56.742Z,12.17
2019-04-07T08:05:54.002Z,12.23
2019-04-07T08:06:54.483Z,12.23
2019-04-07T08:07:54.120Z,12.33
2019-04-07T08:09:06.329Z,12.32
2019-04-07T08:09:57.976Z,12.43
2019-04-07T08:10:58.575Z,12.45
2019-04-07T08:11:56.855Z,12.61
2019-04-07T08:12:53.955Z,12.51
2019-04-07T08:13:55.357Z,12.51
2019-04-07T08:14:56.188Z,12.68
2019-04-07T08:15:54.575Z,12.62
2019-04-07T08:16:54.400Z,12.75
2019-04-07T08:17:54.354Z,12.78
2019-04-07T08:18:53.873Z,12.84
2019-04-07T08:19:56.727Z,12.90
2019-04-07T08:20:53.841Z,12.99
2019-04-07T08:21:54.089Z,13.09
2019-04-07T08:22:53.974Z,13.05
2019-04-07T08:23:54.572Z,13.08
2019-04-07T08:24:54.551Z,13.08
2019-04-07T08:25:55.997Z,13.11
2019-04-07T08:27:53.135Z,13.27
2019-04-07T08:28:54.699Z,13.27
2019-04-07T08:29:53.750Z,13.24
2019-04-07T08:30:54.440Z,13.28
2019-04-07T08:31:55.331Z,13.45
2019-04-07T08:32:57.133Z,13.47
2019-04-07T08:33:53.777Z,13.52
2019-04-07T08:34:53.683Z,13.50
2019-04-07T08:35:55.270Z,13.55
2019-04-07T08:36:56.340Z,13.58
2019-04-07T08:37:54.501Z,13.61
2019-04-07T08:38:55.734Z,13.65
2019-04-07T08:39:56.699Z,13.71
2019-04-07T08:40:54.938Z,13.76
2019-04-07T08:41:53.617Z,13.79
2019-04-07T08:42:53.615Z,13.87
2019-04-07T08:43:56.657Z,14.00
2019-04-07T08:44:57.217Z,14.07
2019-04-07T08:45:53.733Z,14.16
2019-04-07T08:46:54.101Z,14.00
2019-04-07T08:47:53.770Z,14.11
2019-04-07T08:48:54.450Z,14.08
2019-04-07T08:49:56.859Z,13.95
2019-04-07T08:50:57.235Z,14.12
2019-04-07T08:51:53.958Z,14.15
2019-04-07T08:52:54.335Z,13.98
2019-04-07T08:53:53.934Z,14.18
2019-04-07T08:55:54.696Z,14.28
2019-04-07T08:56:54.193Z,14.40
2019-04-07T08:57:53.426Z,14.49
2019-04-07T08:58:54.215Z,14.55
2019-04-07T08:59:53.847Z,14.63
2019-04-07T09:00:53.945Z,14.73
2019-04-07T09:01:54.330Z,14.85
2019-04-07T09:03:01.648Z,14.89
2019-04-07T09:03:54.233Z,14.92
2019-04-07T09:04:53.350Z,14.89
2019-04-07T09:05:58.481Z,15.02
2019-04-07T09:06:53.749Z,15.07
2019-04-07T09:07:54.028Z,15.14
2019-04-07T09:08:53.322Z,15.18
2019-04-07T09:09:53.298Z,15.19
2019-04-07T09:10:53.818Z,15.25
2019-04-07T09:11:56.335Z,15.32
2019-04-07T09:12:53.251Z,15.27
2019-04-07T09:13:54.751Z,15.27
2019-04-07T09:14:53.248Z,15.30
2019-04-07T09:15:53.431Z,15.22
2019-04-07T09:16:55.059Z,15.25
2019-04-07T09:17:53.244Z,15.25
2019-04-07T09:19:00.644Z,15.35
2019-04-07T09:19:54.713Z,15.37
2019-04-07T09:20:53.178Z,15.45
2019-04-07T09:21:54.337Z,15.52
2019-04-07T09:22:55.754Z,15.57
2019-04-07T09:23:55.199Z,15.66
2019-04-07T09:24:53.272Z,15.69
2019-04-07T09:25:53.146Z,15.73
2019-04-07T09:26:53.173Z,15.69
2019-04-07T09:27:53.813Z,15.73
2019-04-07T09:28:55.950Z,15.78
2019-04-07T09:29:58.175Z,15.75
2019-04-07T09:30:53.660Z,15.98
2019-04-07T09:31:53.049Z,15.92
2019-04-07T09:32:53.042Z,16.05
2019-04-07T09:33:53.912Z,16.02
2019-04-07T09:34:54.227Z,16.10
2019-04-07T09:36:52.024Z,16.24
2019-04-07T09:37:54.098Z,16.29
2019-04-07T09:38:57.020Z,16.26
2019-04-07T09:39:59.237Z,16.34
2019-04-07T09:40:53.080Z,16.37
2019-04-07T09:41:55.183Z,16.41
2019-04-07T09:42:57.456Z,16.47
2019-04-07T09:43:53.572Z,16.51
2019-04-07T09:44:52.949Z,16.49
2019-04-07T09:45:52.944Z,16.66
2019-04-07T09:46:53.088Z,16.54
2019-04-07T09:47:52.904Z,16.62
2019-04-07T09:48:52.939Z,16.55
2019-04-07T09:49:56.341Z,16.57
2019-04-07T09:50:55.024Z,16.54
2019-04-07T09:51:52.895Z,16.51
2019-04-07T09:52:52.842Z,16.64
2019-04-07T09:53:53.352Z,16.68
2019-04-07T09:54:55.280Z,16.73
2019-04-07T09:55:55.563Z,16.69
2019-04-07T09:56:52.779Z,16.64
2019-04-07T09:57:52.806Z,16.65
2019-04-07T09:58:53.482Z,16.65
2019-04-07T09:59:54.272Z,16.69
2019-04-07T10:00:55.579Z,16.73
2019-04-07T10:01:52.722Z,16.68
2019-04-07T10:02:53.021Z,16.69
2019-04-07T10:03:52.718Z,16.76
2019-04-07T10:04:52.700Z,16.86
2019-04-07T10:05:52.678Z,16.95
2019-04-07T10:06:52.659Z,16.92
2019-04-07T10:07:53.262Z,17.01
2019-04-07T10:08:53.243Z,17.01
2019-04-07T10:10:04.603Z,17.05
2019-04-07T10:10:52.694Z,17.12
2019-04-07T10:11:52.628Z,17.23
2019-04-07T10:12:52.596Z,17.28
2019-04-07T10:13:53.086Z,17.22
2019-04-07T10:14:55.342Z,17.30
2019-04-07T10:15:53.214Z,17.30
2019-04-07T10:16:53.240Z,17.31
2019-04-07T10:17:55.492Z,17.35
2019-04-07T10:18:53.269Z,17.39
2019-04-07T10:19:52.685Z,17.53
2019-04-07T10:20:52.537Z,17.52
2019-04-07T10:21:52.690Z,17.65
2019-04-07T10:22:52.494Z,17.71
2019-04-07T10:23:52.480Z,17.66
2019-04-07T10:25:51.802Z,17.60
2019-04-07T10:26:53.562Z,17.52
2019-04-07T10:27:52.445Z,17.50
2019-04-07T10:28:53.146Z,17.59
2019-04-07T10:29:52.595Z,17.57
2019-04-07T10:30:52.921Z,17.71
2019-04-07T10:31:52.936Z,17.65
2019-04-07T10:32:52.397Z,17.78
2019-04-07T10:33:52.636Z,17.69
2019-04-07T10:34:52.359Z,17.66
2019-04-07T10:35:52.507Z,17.72
2019-04-07T10:36:52.346Z,17.72
2019-04-07T10:37:53.343Z,17.75
2019-04-07T10:38:52.314Z,17.72
2019-04-07T10:39:52.685Z,17.71
2019-04-07T10:40:52.289Z,17.73
2019-04-07T10:41:53.183Z,17.84
2019-04-07T10:42:54.709Z,17.94
2019-04-07T10:43:52.605Z,18.03
2019-04-07T10:44:52.239Z,18.06
2019-04-07T10:45:52.249Z,18.08
2019-04-07T10:46:52.221Z,18.08
2019-04-07T10:47:52.379Z,18.03
2019-04-07T10:48:52.203Z,18.06
2019-04-07T10:49:58.598Z,18.09
2019-04-07T10:50:52.207Z,18.11
2019-04-07T10:51:52.358Z,18.08
2019-04-07T10:52:52.157Z,18.12
2019-04-07T10:53:52.705Z,17.97
2019-04-07T10:54:52.135Z,18.05
2019-04-07T10:55:52.209Z,18.00
2019-04-07T10:56:52.151Z,17.80
2019-04-07T10:57:52.421Z,17.87
2019-04-07T10:58:52.768Z,17.87
2019-04-07T10:59:52.089Z,17.97
2019-04-07T11:00:52.645Z,18.12
2019-04-07T11:01:52.059Z,18.19
2019-04-07T11:02:55.437Z,18.16
2019-04-07T11:03:53.959Z,18.11
2019-04-07T11:04:52.761Z,18.16
2019-04-07T11:05:52.017Z,18.15
2019-04-07T11:06:52.001Z,18.24
2019-04-07T11:07:54.814Z,18.34
2019-04-07T11:08:51.983Z,18.37
2019-04-07T11:09:53.122Z,18.43
2019-04-07T11:10:51.974Z,18.53
2019-04-07T11:11:52.339Z,18.66
2019-04-07T11:12:52.497Z,18.76
2019-04-07T11:13:51.930Z,18.85
2019-04-07T11:14:54.808Z,18.83
2019-04-07T11:15:55.202Z,18.81
2019-04-07T11:16:52.519Z,18.79
2019-04-07T11:17:52.724Z,18.97
2019-04-07T11:18:54.982Z,18.97
2019-04-07T11:19:52.500Z,19.05
2019-04-07T11:20:51.876Z,19.17
2019-04-07T11:21:51.841Z,19.20
2019-04-07T11:22:52.078Z,19.20
2019-04-07T11:23:52.309Z,19.19
2019-04-07T11:24:52.711Z,18.97
2019-04-07T11:25:52.307Z,18.91
2019-04-07T11:26:51.827Z,18.86
2019-04-07T11:27:51.852Z,18.79
2019-04-07T11:28:52.465Z,18.83
2019-04-07T11:29:51.761Z,18.86
2019-04-07T11:30:52.071Z,18.86
2019-04-07T11:31:51.756Z,18.92
2019-04-07T11:32:52.197Z,18.91
2019-04-07T11:33:54.506Z,18.89
2019-04-07T11:34:51.695Z,18.85
2019-04-07T11:35:52.131Z,18.92
2019-04-07T11:36:51.827Z,18.92
2019-04-07T11:37:51.787Z,18.96
2019-04-07T11:38:51.707Z,18.97
2019-04-07T11:39:52.316Z,19.07
2019-04-07T11:40:52.427Z,19.20
2019-04-07T11:41:52.649Z,19.32
2019-04-07T11:42:52.358Z,19.20
2019-04-07T11:43:51.621Z,19.19
2019-04-07T11:44:51.605Z,19.08
2019-04-07T11:45:57.450Z,19.16
2019-04-07T11:46:51.929Z,19.22
2019-04-07T11:47:52.390Z,19.34
2019-04-07T11:48:52.299Z,19.29
2019-04-07T11:49:51.573Z,19.39
2019-04-07T11:50:52.216Z,19.37
2019-04-07T11:51:52.314Z,19.52
2019-04-07T11:52:51.625Z,19.62
2019-04-07T11:53:51.491Z,19.64
2019-04-07T11:54:52.130Z,19.72
2019-04-07T11:55:52.152Z,19.67
2019-04-07T11:56:52.321Z,19.60
2019-04-07T11:58:06.406Z,19.55
2019-04-07T11:58:51.443Z,19.55
2019-04-07T11:59:52.281Z,19.52
2019-04-07T12:00:51.578Z,19.66
2019-04-07T12:01:51.405Z,19.63
2019-04-07T12:02:52.348Z,19.60
2019-04-07T12:03:53.824Z,19.71
2019-04-07T12:04:51.795Z,19.71
2019-04-07T12:05:51.397Z,19.72
2019-04-07T12:06:51.575Z,19.67
2019-04-07T12:07:55.788Z,19.60
2019-04-07T12:08:51.345Z,19.67
2019-04-07T12:09:52.081Z,19.62
2019-04-07T12:10:58.456Z,19.72
2019-04-07T12:11:52.628Z,19.89
2019-04-07T12:12:51.292Z,19.85
2019-04-07T12:13:52.537Z,19.87
2019-04-07T12:14:53.175Z,19.75
2019-04-07T12:15:51.262Z,19.74
2019-04-07T12:16:51.256Z,19.70
2019-04-07T12:17:51.341Z,19.72
2019-04-07T12:18:52.471Z,19.72
2019-04-07T12:19:54.707Z,19.71
2019-04-07T12:20:51.870Z,19.67
2019-04-07T12:21:51.267Z,19.59
2019-04-07T12:22:51.181Z,19.60
2019-04-07T12:23:52.826Z,19.59
2019-04-07T12:24:51.160Z,19.55
2019-04-07T12:25:51.510Z,19.52
2019-04-07T12:26:51.842Z,19.39
2019-04-07T12:27:52.294Z,19.35
2019-04-07T12:28:51.491Z,19.30
2019-04-07T12:29:51.591Z,19.34
2019-04-07T12:30:51.289Z,19.17
2019-04-07T12:31:51.089Z,19.22
2019-04-07T12:32:51.770Z,19.09
2019-04-07T12:33:51.610Z,19.08
2019-04-07T12:34:51.080Z,18.97
2019-04-07T12:35:54.922Z,18.92
2019-04-07T12:36:51.129Z,18.97
2019-04-07T12:37:54.191Z,19.01
2019-04-07T12:38:51.070Z,18.96
2019-04-07T12:39:52.192Z,19.01
2019-04-07T12:40:54.161Z,19.00
2019-04-07T12:41:54.703Z,19.00
2019-04-07T12:42:54.553Z,19.01
2019-04-07T12:43:51.640Z,19.00
2019-04-07T12:44:50.975Z,19.11
2019-04-07T12:45:50.932Z,19.19
2019-04-07T12:46:53.982Z,19.16
2019-04-07T12:47:51.598Z,19.26
2019-04-07T12:48:50.902Z,19.41
2019-04-07T12:49:50.901Z,19.52
2019-04-07T12:50:51.178Z,19.70
2019-04-07T12:51:54.907Z,19.59
2019-04-07T12:52:50.863Z,19.66
2019-04-07T12:53:53.339Z,19.60
2019-04-07T12:54:51.478Z,19.74
2019-04-07T12:55:56.937Z,19.75
2019-04-07T12:56:50.846Z,19.81
2019-04-07T12:57:50.821Z,19.67
2019-04-07T12:58:53.299Z,19.74
2019-04-07T12:59:51.590Z,19.94
2019-04-07T13:00:57.867Z,20.02
2019-04-07T13:01:51.015Z,19.99
2019-04-07T13:02:53.253Z,20.08
2019-04-07T13:03:50.741Z,20.14
2019-04-07T13:04:50.744Z,20.29
2019-04-07T13:05:50.990Z,20.26
2019-04-07T13:06:50.731Z,20.36
2019-04-07T13:07:52.351Z,20.44
2019-04-07T13:08:51.923Z,20.39
2019-04-07T13:09:51.663Z,20.49
2019-04-07T13:10:51.243Z,20.55